Aviation Digital Data Service (ADDS)

Output produced by METARs form (0739 UTC 24 March 2019)
found at http://www.aviationweather.gov/metar/data/
 
EEEI 240650Z 26017KT CAVOK 04/M02 Q1011 R24/290095 NOSIG
TAF EEEI 232330Z 2400/2424 27014KT CAVOK 
     TEMPO 2407/2415 29018G28KT
       
EEKE 240650Z AUTO 30011KT 240V340 9999NDV NCD 05/M02 Q1015
EEPU 240650Z 27010KT CAVOK 04/M01 Q1012
EETN 240720Z 28019G29KT CAVOK 04/M02 Q1009 R08/290195 NOSIG
TAF EETN 240530Z 2406/2506 27016KT CAVOK 
     TEMPO 2406/2415 28018G30KT 
     BECMG 2421/2423 24006KT 
     PROB40 
     TEMPO 2500/2506 3000 BR SCT004
       
EETU 240650Z AUTO 27016KT 9999 NCD 04/M00 Q1010